Station History

Weather Underground - logo

Station Historical Data
Daily Summary for January 29, 2018 Units:  Both    English   Metric
« Previous Day
Next Day »
Daily Weekly Monthly Yearly Custom
  High: Low: Average:
Temperature: 65.4 °F /  18.6 °C 37.2 °F /  2.9 °C 50 °F /  10 °C
Dew Point: 50.9 °F /  10.5 °C 35.6 °F /  2 °C 44.1 °F /  6.7 °C
Humidity: 95 % 57 % 82 %
Wind Speed: 3.5 mph /  5.6 km/h - 0.2 mph /  0.3 km/h
Wind Gust: 3.5 mph /  5.6 km/h - -
Wind:- - West
Pressure: 30.36 in /  1028 hPa 30.15 in /  1020.9 hPa -
Precipitation: 0.00 in /  0 mm    
Historical Graphs
 
 
Tabular Data for January 29, 2018
Time Temperature Dew Point Pressure Wind Wind Speed Wind Gust Humidity Rainfall Rate (Hourly)
00:00 41.0 °F /  5 °C 38.3 °F /  3.5 °C 30.34 in /  1027.3 hPa Calm     90 % 0.00 in /  0 mm
00:05 40.6 °F /  4.8 °C 37.9 °F /  3.3 °C 30.35 in /  1027.7 hPa Calm     90 % 0.00 in /  0 mm
00:10 40.3 °F /  4.6 °C 37.9 °F /  3.3 °C 30.35 in /  1027.7 hPa Calm     91 % 0.00 in /  0 mm
00:15 40.2 °F /  4.6 °C 38.1 °F /  3.4 °C 30.35 in /  1027.7 hPa Calm     92 % 0.00 in /  0 mm
00:20 40.3 °F /  4.6 °C 38.2 °F /  3.4 °C 30.35 in /  1027.7 hPa SSE 1.2 mph /  1.9 km/h 1.2 mph /  1.9 km/h 92 % 0.00 in /  0 mm
00:25 40.1 °F /  4.5 °C 38.0 °F /  3.3 °C 30.35 in /  1027.7 hPa Calm     92 % 0.00 in /  0 mm
00:30 40.0 °F /  4.4 °C 37.9 °F /  3.3 °C 30.35 in /  1027.7 hPa Calm     92 % 0.00 in /  0 mm
00:35 39.9 °F /  4.4 °C 37.8 °F /  3.2 °C 30.35 in /  1027.7 hPa Calm     92 % 0.00 in /  0 mm
00:40 40.0 °F /  4.4 °C 37.9 °F /  3.3 °C 30.35 in /  1027.7 hPa Calm     92 % 0.00 in /  0 mm
00:45 39.9 °F /  4.4 °C 38.0 °F /  3.3 °C 30.35 in /  1027.7 hPa Calm     93 % 0.00 in /  0 mm
00:50 40.0 °F /  4.4 °C 38.1 °F /  3.4 °C 30.35 in /  1027.7 hPa Calm     93 % 0.00 in /  0 mm
00:55 39.9 °F /  4.4 °C 38.0 °F /  3.3 °C 30.35 in /  1027.7 hPa Calm     93 % 0.00 in /  0 mm
01:00 39.9 °F /  4.4 °C 38.0 °F /  3.3 °C 30.35 in /  1027.7 hPa Calm     93 % 0.00 in /  0 mm
01:05 40.0 °F /  4.4 °C 38.1 °F /  3.4 °C 30.35 in /  1027.7 hPa Calm     93 % 0.00 in /  0 mm
01:10 40.0 °F /  4.4 °C 38.1 °F /  3.4 °C 30.35 in /  1027.7 hPa Calm     93 % 0.00 in /  0 mm
01:16 39.9 °F /  4.4 °C 38.0 °F /  3.3 °C 30.35 in /  1027.7 hPa Calm     93 % 0.00 in /  0 mm
01:21 39.9 °F /  4.4 °C 38.0 °F /  3.3 °C 30.36 in /  1028 hPa Calm     93 % 0.00 in /  0 mm
01:26 39.5 °F /  4.2 °C 37.4 °F /  3 °C 30.36 in /  1028 hPa Calm     92 % 0.00 in /  0 mm
01:31 39.4 °F /  4.1 °C 37.5 °F /  3.1 °C 30.36 in /  1028 hPa Calm     93 % 0.00 in /  0 mm
01:36 39.6 °F /  4.2 °C 37.7 °F /  3.2 °C 30.36 in /  1028 hPa Calm     93 % 0.00 in /  0 mm
01:41 39.8 °F /  4.3 °C 38.2 °F /  3.4 °C 30.36 in /  1028 hPa Calm     94 % 0.00 in /  0 mm
01:46 39.8 °F /  4.3 °C 37.9 °F /  3.3 °C 30.36 in /  1028 hPa Calm     93 % 0.00 in /  0 mm
01:51 39.7 °F /  4.3 °C 37.8 °F /  3.2 °C 30.35 in /  1027.7 hPa Calm     93 % 0.00 in /  0 mm
01:56 39.5 °F /  4.2 °C 37.6 °F /  3.1 °C 30.35 in /  1027.7 hPa Calm     93 % 0.00 in /  0 mm
02:01 39.7 °F /  4.3 °C 38.1 °F /  3.4 °C 30.34 in /  1027.3 hPa Calm     94 % 0.00 in /  0 mm
02:06 40.2 °F /  4.6 °C 38.6 °F /  3.7 °C 30.34 in /  1027.3 hPa Calm     94 % 0.00 in /  0 mm
02:11 40.8 °F /  4.9 °C 39.2 °F /  4 °C 30.33 in /  1027 hPa Calm     94 % 0.00 in /  0 mm
02:16 41.0 °F /  5 °C 39.4 °F /  4.1 °C 30.33 in /  1027 hPa Calm     94 % 0.00 in /  0 mm
02:21 41.5 °F /  5.3 °C 39.9 °F /  4.4 °C 30.33 in /  1027 hPa Calm     94 % 0.00 in /  0 mm
02:26 41.6 °F /  5.3 °C 40.0 °F /  4.4 °C 30.32 in /  1026.6 hPa Calm     94 % 0.00 in /  0 mm
02:31 41.3 °F /  5.2 °C 39.4 °F /  4.1 °C 30.31 in /  1026.3 hPa Calm     93 % 0.00 in /  0 mm
02:36 41.0 °F /  5 °C 38.9 °F /  3.8 °C 30.31 in /  1026.3 hPa Calm     92 % 0.00 in /  0 mm
02:41 40.7 °F /  4.8 °C 38.6 °F /  3.7 °C 30.31 in /  1026.3 hPa Calm     92 % 0.00 in /  0 mm
02:46 40.1 °F /  4.5 °C 37.7 °F /  3.2 °C 30.30 in /  1026 hPa Calm     91 % 0.00 in /  0 mm
02:51 39.7 °F /  4.3 °C 37.6 °F /  3.1 °C 30.30 in /  1026 hPa Calm     92 % 0.00 in /  0 mm
02:56 39.7 °F /  4.3 °C 37.6 °F /  3.1 °C 30.30 in /  1026 hPa Calm     92 % 0.00 in /  0 mm
03:01 39.7 °F /  4.3 °C 37.8 °F /  3.2 °C 30.30 in /  1026 hPa Calm     93 % 0.00 in /  0 mm
03:06 39.6 °F /  4.2 °C 37.7 °F /  3.2 °C 30.30 in /  1026 hPa Calm     93 % 0.00 in /  0 mm
03:11 39.2 °F /  4 °C 37.1 °F /  2.8 °C 30.29 in /  1025.6 hPa Calm     92 % 0.00 in /  0 mm
03:16 39.1 °F /  3.9 °C 37.2 °F /  2.9 °C 30.29 in /  1025.6 hPa Calm     93 % 0.00 in /  0 mm
03:21 39.0 °F /  3.9 °C 37.1 °F /  2.8 °C 30.29 in /  1025.6 hPa Calm     93 % 0.00 in /  0 mm
03:26 38.8 °F /  3.8 °C 36.9 °F /  2.7 °C 30.29 in /  1025.6 hPa Calm     93 % 0.00 in /  0 mm
03:31 38.7 °F /  3.7 °C 36.9 °F /  2.7 °C 30.29 in /  1025.6 hPa Calm     93 % 0.00 in /  0 mm
03:36 38.6 °F /  3.7 °C 36.8 °F /  2.7 °C 30.29 in /  1025.6 hPa Calm     93 % 0.00 in /  0 mm
03:41 38.7 °F /  3.7 °C 37.1 °F /  2.8 °C 30.29 in /  1025.6 hPa Calm     94 % 0.00 in /  0 mm
03:46 38.9 °F /  3.8 °C 37.3 °F /  2.9 °C 30.29 in /  1025.6 hPa Calm     94 % 0.00 in /  0 mm
03:51 38.9 °F /  3.8 °C 37.3 °F /  2.9 °C 30.29 in /  1025.6 hPa Calm     94 % 0.00 in /  0 mm
03:56 39.1 °F /  3.9 °C 37.5 °F /  3.1 °C 30.29 in /  1025.6 hPa Calm     94 % 0.00 in /  0 mm
04:01 39.2 °F /  4 °C 37.6 °F /  3.1 °C 30.30 in /  1026 hPa Calm     94 % 0.00 in /  0 mm
04:06 39.3 °F /  4.1 °C 37.7 °F /  3.2 °C 30.30 in /  1026 hPa Calm     94 % 0.00 in /  0 mm
04:11 39.5 °F /  4.2 °C 37.9 °F /  3.3 °C 30.30 in /  1026 hPa Calm     94 % 0.00 in /  0 mm
04:16 39.7 °F /  4.3 °C 38.1 °F /  3.4 °C 30.31 in /  1026.3 hPa Calm     94 % 0.00 in /  0 mm
04:21 39.5 °F /  4.2 °C 37.9 °F /  3.3 °C 30.31 in /  1026.3 hPa Calm     94 % 0.00 in /  0 mm
04:26 39.1 °F /  3.9 °C 37.2 °F /  2.9 °C 30.31 in /  1026.3 hPa Calm     93 % 0.00 in /  0 mm
04:31 38.9 °F /  3.8 °C 37.0 °F /  2.8 °C 30.31 in /  1026.3 hPa Calm     93 % 0.00 in /  0 mm
04:36 38.8 °F /  3.8 °C 37.2 °F /  2.9 °C 30.31 in /  1026.3 hPa Calm     94 % 0.00 in /  0 mm
04:41 38.7 °F /  3.7 °C 37.1 °F /  2.8 °C 30.32 in /  1026.6 hPa Calm     94 % 0.00 in /  0 mm
04:46 38.6 °F /  3.7 °C 37.0 °F /  2.8 °C 30.32 in /  1026.6 hPa Calm     94 % 0.00 in /  0 mm
04:51 38.5 °F /  3.6 °C 36.9 °F /  2.7 °C 30.32 in /  1026.6 hPa Calm     94 % 0.00 in /  0 mm
04:56 38.5 °F /  3.6 °C 36.9 °F /  2.7 °C 30.32 in /  1026.6 hPa Calm     94 % 0.00 in /  0 mm
05:01 38.7 °F /  3.7 °C 37.1 °F /  2.8 °C 30.33 in /  1027 hPa Calm     94 % 0.00 in /  0 mm
05:06 38.8 °F /  3.8 °C 37.2 °F /  2.9 °C 30.33 in /  1027 hPa Calm     94 % 0.00 in /  0 mm
05:12 38.9 °F /  3.8 °C 37.3 °F /  2.9 °C 30.33 in /  1027 hPa Calm     94 % 0.00 in /  0 mm
05:16 38.7 °F /  3.7 °C 37.1 °F /  2.8 °C 30.32 in /  1026.6 hPa Calm     94 % 0.00 in /  0 mm
05:21 38.7 °F /  3.7 °C 37.1 °F /  2.8 °C 30.32 in /  1026.6 hPa Calm     94 % 0.00 in /  0 mm
05:26 38.8 °F /  3.8 °C 37.2 °F /  2.9 °C 30.32 in /  1026.6 hPa Calm     94 % 0.00 in /  0 mm
05:32 38.7 °F /  3.7 °C 37.1 °F /  2.8 °C 30.31 in /  1026.3 hPa Calm     94 % 0.00 in /  0 mm
05:37 38.5 °F /  3.6 °C 36.9 °F /  2.7 °C 30.31 in /  1026.3 hPa Calm     94 % 0.00 in /  0 mm
05:42 38.4 °F /  3.6 °C 36.8 °F /  2.7 °C 30.31 in /  1026.3 hPa Calm     94 % 0.00 in /  0 mm
05:47 38.4 °F /  3.6 °C 36.8 °F /  2.7 °C 30.31 in /  1026.3 hPa Calm     94 % 0.00 in /  0 mm
05:52 38.1 °F /  3.4 °C 36.5 °F /  2.5 °C 30.31 in /  1026.3 hPa Calm     94 % 0.00 in /  0 mm
05:57 38.1 °F /  3.4 °C 36.5 °F /  2.5 °C 30.31 in /  1026.3 hPa Calm     94 % 0.00 in /  0 mm
06:02 38.1 °F /  3.4 °C 36.5 °F /  2.5 °C 30.30 in /  1026 hPa Calm     94 % 0.00 in /  0 mm
06:07 38.3 °F /  3.5 °C 36.7 °F /  2.6 °C 30.30 in /  1026 hPa Calm     94 % 0.00 in /  0 mm
06:12 38.4 °F /  3.6 °C 37.1 °F /  2.8 °C 30.30 in /  1026 hPa Calm     95 % 0.00 in /  0 mm
06:17 38.2 °F /  3.4 °C 36.6 °F /  2.6 °C 30.29 in /  1025.6 hPa Calm     94 % 0.00 in /  0 mm
06:22 38.1 °F /  3.4 °C 36.5 °F /  2.5 °C 30.29 in /  1025.6 hPa Calm     94 % 0.00 in /  0 mm
06:27 38.0 °F /  3.3 °C 36.4 °F /  2.4 °C 30.29 in /  1025.6 hPa Calm     94 % 0.00 in /  0 mm
06:32 37.9 °F /  3.3 °C 36.3 °F /  2.4 °C 30.29 in /  1025.6 hPa Calm     94 % 0.00 in /  0 mm
06:37 37.8 °F /  3.2 °C 36.2 °F /  2.3 °C 30.29 in /  1025.6 hPa Calm     94 % 0.00 in /  0 mm
06:42 37.7 °F /  3.2 °C 36.1 °F /  2.3 °C 30.29 in /  1025.6 hPa Calm     94 % 0.00 in /  0 mm
06:47 37.5 °F /  3.1 °C 35.9 °F /  2.2 °C 30.29 in /  1025.6 hPa Calm     94 % 0.00 in /  0 mm
06:52 37.4 °F /  3 °C 35.8 °F /  2.1 °C 30.30 in /  1026 hPa Calm     94 % 0.00 in /  0 mm
06:57 37.3 °F /  2.9 °C 35.7 °F /  2.1 °C 30.30 in /  1026 hPa Calm     94 % 0.00 in /  0 mm
07:02 37.3 °F /  2.9 °C 35.7 °F /  2.1 °C 30.30 in /  1026 hPa Calm     94 % 0.00 in /  0 mm
07:07 37.2 °F /  2.9 °C 35.6 °F /  2 °C 30.30 in /  1026 hPa Calm     94 % 0.00 in /  0 mm
07:12 37.3 °F /  2.9 °C 35.7 °F /  2.1 °C 30.30 in /  1026 hPa Calm     94 % 0.00 in /  0 mm
07:17 37.3 °F /  2.9 °C 35.7 °F /  2.1 °C 30.30 in /  1026 hPa Calm     94 % 0.00 in /  0 mm
07:22 37.3 °F /  2.9 °C 35.7 °F /  2.1 °C 30.31 in /  1026.3 hPa Calm     94 % 0.00 in /  0 mm
07:27 37.4 °F /  3 °C 35.8 °F /  2.1 °C 30.31 in /  1026.3 hPa Calm     94 % 0.00 in /  0 mm
07:32 37.5 °F /  3.1 °C 35.9 °F /  2.2 °C 30.31 in /  1026.3 hPa Calm     94 % 0.00 in /  0 mm
07:37 37.8 °F /  3.2 °C 36.5 °F /  2.5 °C 30.32 in /  1026.6 hPa Calm     95 % 0.00 in /  0 mm
07:42 38.1 °F /  3.4 °C 36.8 °F /  2.7 °C 30.32 in /  1026.6 hPa Calm     95 % 0.00 in /  0 mm
07:47 38.3 °F /  3.5 °C 37.0 °F /  2.8 °C 30.32 in /  1026.6 hPa Calm     95 % 0.00 in /  0 mm
07:52 38.7 °F /  3.7 °C 37.4 °F /  3 °C 30.33 in /  1027 hPa Calm     95 % 0.00 in /  0 mm
07:57 39.3 °F /  4.1 °C 38.0 °F /  3.3 °C 30.33 in /  1027 hPa Calm     95 % 0.00 in /  0 mm
08:02 39.9 °F /  4.4 °C 38.6 °F /  3.7 °C 30.33 in /  1027 hPa Calm     95 % 0.00 in /  0 mm
08:07 40.5 °F /  4.7 °C 39.2 °F /  4 °C 30.33 in /  1027 hPa Calm     95 % 0.00 in /  0 mm
08:12 41.2 °F /  5.1 °C 39.9 °F /  4.4 °C 30.33 in /  1027 hPa ESE 1.0 mph /  1.6 km/h 1.0 mph /  1.6 km/h 95 % 0.00 in /  0 mm
08:17 41.9 °F /  5.5 °C 40.6 °F /  4.8 °C 30.32 in /  1026.6 hPa ESE 1.2 mph /  1.9 km/h   95 % 0.00 in /  0 mm
08:22 42.6 °F /  5.9 °C 41.3 °F /  5.2 °C 30.33 in /  1027 hPa Calm     95 % 0.00 in /  0 mm
08:27 43.2 °F /  6.2 °C 41.6 °F /  5.3 °C 30.32 in /  1026.6 hPa Calm     94 % 0.00 in /  0 mm
08:32 43.8 °F /  6.6 °C 42.2 °F /  5.7 °C 30.33 in /  1027 hPa Calm     94 % 0.00 in /  0 mm
08:37 44.3 °F /  6.8 °C 42.4 °F /  5.8 °C 30.33 in /  1027 hPa Calm     93 % 0.00 in /  0 mm
08:42 44.8 °F /  7.1 °C 42.9 °F /  6.1 °C 30.33 in /  1027 hPa Calm     93 % 0.00 in /  0 mm
08:47 45.3 °F /  7.4 °C 43.4 °F /  6.3 °C 30.33 in /  1027 hPa Calm     93 % 0.00 in /  0 mm
08:52 46.1 °F /  7.8 °C 43.9 °F /  6.6 °C 30.33 in /  1027 hPa Calm     92 % 0.00 in /  0 mm
08:57 46.9 °F /  8.3 °C 44.7 °F /  7.1 °C 30.34 in /  1027.3 hPa SE 1.2 mph /  1.9 km/h   92 % 0.00 in /  0 mm
09:02 47.3 °F /  8.5 °C 44.8 °F /  7.1 °C 30.34 in /  1027.3 hPa Calm     91 % 0.00 in /  0 mm
09:07 47.5 °F /  8.6 °C 44.7 °F /  7.1 °C 30.33 in /  1027 hPa Calm     90 % 0.00 in /  0 mm
09:12 47.8 °F /  8.8 °C 45.0 °F /  7.2 °C 30.33 in /  1027 hPa Calm     90 % 0.00 in /  0 mm
09:17 48.4 °F /  9.1 °C 45.6 °F /  7.6 °C 30.33 in /  1027 hPa Calm   0.1 mph /  0.2 km/h 90 % 0.00 in /  0 mm
09:22 49.1 °F /  9.5 °C 45.7 °F /  7.6 °C 30.33 in /  1027 hPa SE 2.3 mph /  3.7 km/h 2.3 mph /  3.7 km/h 88 % 0.00 in /  0 mm
09:27 49.7 °F /  9.8 °C 46.0 °F /  7.8 °C 30.33 in /  1027 hPa SE 1.2 mph /  1.9 km/h 1.2 mph /  1.9 km/h 87 % 0.00 in /  0 mm
09:32 50.5 °F /  10.3 °C 46.8 °F /  8.2 °C 30.33 in /  1027 hPa Calm   0.1 mph /  0.2 km/h 87 % 0.00 in /  0 mm
09:37 51.2 °F /  10.7 °C 46.8 °F /  8.2 °C 30.33 in /  1027 hPa Calm   0.1 mph /  0.2 km/h 85 % 0.00 in /  0 mm
09:42 51.7 °F /  10.9 °C 47.0 °F /  8.3 °C 30.33 in /  1027 hPa Calm     84 % 0.00 in /  0 mm
09:43 51.8 °F /  11 °C 46.8 °F /  8.2 °C 30.33 in /  1027 hPa Calm     83 % 0.00 in /  0 mm
09:48 52.2 °F /  11.2 °C 46.9 °F /  8.3 °C 30.33 in /  1027 hPa ESE 1.2 mph /  1.9 km/h   82 % 0.00 in /  0 mm
09:53 52.8 °F /  11.6 °C 46.8 °F /  8.2 °C 30.33 in /  1027 hPa Calm     80 % 0.00 in /  0 mm
09:58 53.0 °F /  11.7 °C 46.7 °F /  8.2 °C 30.33 in /  1027 hPa WNW 1.0 mph /  1.6 km/h 1.0 mph /  1.6 km/h 79 % 0.00 in /  0 mm
10:03 53.2 °F /  11.8 °C 46.5 °F /  8.1 °C 30.33 in /  1027 hPa Calm     78 % 0.00 in /  0 mm
10:08 53.8 °F /  12.1 °C 46.8 °F /  8.2 °C 30.33 in /  1027 hPa Calm     77 % 0.00 in /  0 mm
10:13 54.4 °F /  12.4 °C 47.0 °F /  8.3 °C 30.33 in /  1027 hPa Calm     76 % 0.00 in /  0 mm
10:18 55.0 °F /  12.8 °C 47.2 °F /  8.4 °C 30.33 in /  1027 hPa WNW 1.2 mph /  1.9 km/h 1.2 mph /  1.9 km/h 75 % 0.00 in /  0 mm
10:23 55.3 °F /  12.9 °C 46.8 °F /  8.2 °C 30.33 in /  1027 hPa Calm     73 % 0.00 in /  0 mm
10:28 55.5 °F /  13.1 °C 47.0 °F /  8.3 °C 30.32 in /  1026.6 hPa WSW 1.2 mph /  1.9 km/h   73 % 0.00 in /  0 mm
10:33 55.7 °F /  13.2 °C 46.8 °F /  8.2 °C 30.32 in /  1026.6 hPa Calm     72 % 0.00 in /  0 mm
10:38 56.2 °F /  13.4 °C 47.7 °F /  8.7 °C 30.32 in /  1026.6 hPa Calm     73 % 0.00 in /  0 mm
10:43 56.7 °F /  13.7 °C 47.8 °F /  8.8 °C 30.31 in /  1026.3 hPa Calm     72 % 0.00 in /  0 mm
10:48 57.0 °F /  13.9 °C 48.1 °F /  8.9 °C 30.31 in /  1026.3 hPa Calm     72 % 0.00 in /  0 mm
10:53 57.4 °F /  14.1 °C 47.7 °F /  8.7 °C 30.30 in /  1026 hPa Calm     70 % 0.00 in /  0 mm
10:58 57.5 °F /  14.2 °C 47.8 °F /  8.8 °C 30.30 in /  1026 hPa Calm     70 % 0.00 in /  0 mm
11:03 57.7 °F /  14.3 °C 47.6 °F /  8.7 °C 30.30 in /  1026 hPa Calm     69 % 0.00 in /  0 mm
11:08 58.0 °F /  14.4 °C 47.5 °F /  8.6 °C 30.30 in /  1026 hPa West 1.2 mph /  1.9 km/h 1.2 mph /  1.9 km/h 68 % 0.00 in /  0 mm
11:13 58.2 °F /  14.6 °C 47.7 °F /  8.7 °C 30.30 in /  1026 hPa Calm     68 % 0.00 in /  0 mm
11:18 58.6 °F /  14.8 °C 47.7 °F /  8.7 °C 30.29 in /  1025.6 hPa Calm     67 % 0.00 in /  0 mm
11:23 59.1 °F /  15.1 °C 48.1 °F /  8.9 °C 30.29 in /  1025.6 hPa NW 1.2 mph /  1.9 km/h 1.2 mph /  1.9 km/h 67 % 0.00 in /  0 mm
11:28 59.5 °F /  15.3 °C 48.1 °F /  8.9 °C 30.29 in /  1025.6 hPa NW 1.0 mph /  1.6 km/h 1.0 mph /  1.6 km/h 66 % 0.00 in /  0 mm
11:33 59.8 °F /  15.4 °C 48.4 °F /  9.1 °C 30.29 in /  1025.6 hPa Calm     66 % 0.00 in /  0 mm
11:38 60.2 °F /  15.7 °C 48.8 °F /  9.3 °C 30.29 in /  1025.6 hPa NW 2.3 mph /  3.7 km/h 2.3 mph /  3.7 km/h 66 % 0.00 in /  0 mm
11:43 60.5 °F /  15.8 °C 48.7 °F /  9.3 °C 30.29 in /  1025.6 hPa NW 1.2 mph /  1.9 km/h 1.2 mph /  1.9 km/h 65 % 0.00 in /  0 mm
11:48 60.7 °F /  15.9 °C 48.9 °F /  9.4 °C 30.28 in /  1025.3 hPa NW 2.3 mph /  3.7 km/h 2.3 mph /  3.7 km/h 65 % 0.00 in /  0 mm
11:53 61.3 °F /  16.3 °C 49.4 °F /  9.7 °C 30.28 in /  1025.3 hPa Calm     65 % 0.00 in /  0 mm
11:58 61.3 °F /  16.3 °C 48.6 °F /  9.2 °C 30.28 in /  1025.3 hPa NW 3.5 mph /  5.6 km/h 3.5 mph /  5.6 km/h 63 % 0.00 in /  0 mm
12:03 61.6 °F /  16.4 °C 48.4 °F /  9.1 °C 30.27 in /  1024.9 hPa WNW 3.5 mph /  5.6 km/h 3.5 mph /  5.6 km/h 62 % 0.00 in /  0 mm
12:08 61.7 °F /  16.5 °C 49.0 °F /  9.4 °C 30.27 in /  1024.9 hPa NE 2.3 mph /  3.7 km/h   63 % 0.00 in /  0 mm
12:13 61.9 °F /  16.6 °C 49.2 °F /  9.6 °C 30.27 in /  1024.9 hPa WNW 2.3 mph /  3.7 km/h 2.3 mph /  3.7 km/h 63 % 0.00 in /  0 mm
12:18 61.9 °F /  16.6 °C 48.7 °F /  9.3 °C 30.27 in /  1024.9 hPa NW 1.2 mph /  1.9 km/h   62 % 0.00 in /  0 mm
12:23 62.2 °F /  16.8 °C 49.0 °F /  9.4 °C 30.26 in /  1024.6 hPa West 1.2 mph /  1.9 km/h   62 % 0.00 in /  0 mm
12:28 62.8 °F /  17.1 °C 49.6 °F /  9.8 °C 30.26 in /  1024.6 hPa NW 1.2 mph /  1.9 km/h 1.2 mph /  1.9 km/h 62 % 0.00 in /  0 mm
12:33 63.3 °F /  17.4 °C 49.2 °F /  9.6 °C 30.26 in /  1024.6 hPa NW 1.2 mph /  1.9 km/h   60 % 0.00 in /  0 mm
12:38 63.6 °F /  17.6 °C 49.5 °F /  9.7 °C 30.25 in /  1024.3 hPa WNW 1.2 mph /  1.9 km/h 1.2 mph /  1.9 km/h 60 % 0.00 in /  0 mm
12:43 63.5 °F /  17.5 °C 48.9 °F /  9.4 °C 30.25 in /  1024.3 hPa West 2.3 mph /  3.7 km/h 2.3 mph /  3.7 km/h 59 % 0.00 in /  0 mm
12:48 63.3 °F /  17.4 °C 49.2 °F /  9.6 °C 30.25 in /  1024.3 hPa NW 1.2 mph /  1.9 km/h   60 % 0.00 in /  0 mm
12:53 63.7 °F /  17.6 °C 50.0 °F /  10 °C 30.25 in /  1024.3 hPa NNW 1.0 mph /  1.6 km/h 1.0 mph /  1.6 km/h 61 % 0.00 in /  0 mm
12:58 63.8 °F /  17.7 °C 49.6 °F /  9.8 °C 30.25 in /  1024.3 hPa NNW 1.2 mph /  1.9 km/h 1.2 mph /  1.9 km/h 60 % 0.00 in /  0 mm
13:03 63.8 °F /  17.7 °C 49.6 °F /  9.8 °C 30.24 in /  1023.9 hPa NW 1.2 mph /  1.9 km/h 1.2 mph /  1.9 km/h 60 % 0.00 in /  0 mm
13:08 64.1 °F /  17.8 °C 49.9 °F /  9.9 °C 30.24 in /  1023.9 hPa Calm     60 % 0.00 in /  0 mm
13:13 64.0 °F /  17.8 °C 49.4 °F /  9.7 °C 30.24 in /  1023.9 hPa WNW 2.3 mph /  3.7 km/h 2.3 mph /  3.7 km/h 59 % 0.00 in /  0 mm
13:18 63.9 °F /  17.7 °C 50.2 °F /  10.1 °C 30.23 in /  1023.6 hPa Calm     61 % 0.00 in /  0 mm
13:23 64.0 °F /  17.8 °C 49.4 °F /  9.7 °C 30.23 in /  1023.6 hPa WNW 1.2 mph /  1.9 km/h   59 % 0.00 in /  0 mm
13:28 64.2 °F /  17.9 °C 49.6 °F /  9.8 °C 30.22 in /  1023.2 hPa WNW 2.0 mph /  3.2 km/h 2.0 mph /  3.2 km/h 59 % 0.00 in /  0 mm
13:33 64.2 °F /  17.9 °C 49.1 °F /  9.5 °C 30.22 in /  1023.2 hPa Calm     58 % 0.00 in /  0 mm
13:38 64.5 °F /  18.1 °C 49.8 °F /  9.9 °C 30.22 in /  1023.2 hPa Calm     59 % 0.00 in /  0 mm
13:43 64.6 °F /  18.1 °C 49.9 °F /  9.9 °C 30.21 in /  1022.9 hPa Calm     59 % 0.00 in /  0 mm
13:48 64.8 °F /  18.2 °C 50.1 °F /  10.1 °C 30.21 in /  1022.9 hPa Calm     59 % 0.00 in /  0 mm
13:53 65.0 °F /  18.3 °C 49.9 °F /  9.9 °C 30.21 in /  1022.9 hPa Calm     58 % 0.00 in /  0 mm
13:58 65.2 °F /  18.4 °C 49.6 °F /  9.8 °C 30.21 in /  1022.9 hPa Calm     57 % 0.00 in /  0 mm
14:03 65.1 °F /  18.4 °C 49.5 °F /  9.7 °C 30.20 in /  1022.6 hPa Calm     57 % 0.00 in /  0 mm
14:08 64.9 °F /  18.3 °C 49.3 °F /  9.6 °C 30.20 in /  1022.6 hPa Calm     57 % 0.00 in /  0 mm
14:13 65.2 °F /  18.4 °C 50.0 °F /  10 °C 30.20 in /  1022.6 hPa Calm     58 % 0.00 in /  0 mm
14:18 65.4 °F /  18.6 °C 50.2 °F /  10.1 °C 30.19 in /  1022.2 hPa Calm   0.1 mph /  0.2 km/h 58 % 0.00 in /  0 mm
14:23 65.2 °F /  18.4 °C 49.6 °F /  9.8 °C 30.20 in /  1022.6 hPa NW 1.2 mph /  1.9 km/h 1.2 mph /  1.9 km/h 57 % 0.00 in /  0 mm
14:28 65.0 °F /  18.3 °C 49.9 °F /  9.9 °C 30.19 in /  1022.2 hPa NW 2.0 mph /  3.2 km/h 2.0 mph /  3.2 km/h 58 % 0.00 in /  0 mm
14:33 64.7 °F /  18.2 °C 49.6 °F /  9.8 °C 30.19 in /  1022.2 hPa Calm     58 % 0.00 in /  0 mm
14:39 64.7 °F /  18.2 °C 49.6 °F /  9.8 °C 30.19 in /  1022.2 hPa Calm     58 % 0.00 in /  0 mm
14:43 64.6 °F /  18.1 °C 50.4 °F /  10.2 °C 30.19 in /  1022.2 hPa Calm     60 % 0.00 in /  0 mm
14:48 64.7 °F /  18.2 °C 50.0 °F /  10 °C 30.18 in /  1021.9 hPa WNW 1.2 mph /  1.9 km/h   59 % 0.00 in /  0 mm
14:53 64.8 °F /  18.2 °C 49.7 °F /  9.8 °C 30.18 in /  1021.9 hPa WNW 1.2 mph /  1.9 km/h   58 % 0.00 in /  0 mm
14:58 64.9 °F /  18.3 °C 49.8 °F /  9.9 °C 30.18 in /  1021.9 hPa WNW 1.2 mph /  1.9 km/h   58 % 0.00 in /  0 mm
15:03 65.0 °F /  18.3 °C 49.4 °F /  9.7 °C 30.18 in /  1021.9 hPa NNW 1.2 mph /  1.9 km/h 1.2 mph /  1.9 km/h 57 % 0.00 in /  0 mm
15:08 64.9 °F /  18.3 °C 49.3 °F /  9.6 °C 30.18 in /  1021.9 hPa Calm     57 % 0.00 in /  0 mm
15:13 64.9 °F /  18.3 °C 50.2 °F /  10.1 °C 30.18 in /  1021.9 hPa Calm     59 % 0.00 in /  0 mm
15:18 64.9 °F /  18.3 °C 49.8 °F /  9.9 °C 30.18 in /  1021.9 hPa Calm     58 % 0.00 in /  0 mm
15:24 64.9 °F /  18.3 °C 49.8 °F /  9.9 °C 30.18 in /  1021.9 hPa NW 2.3 mph /  3.7 km/h   58 % 0.00 in /  0 mm
15:29 64.9 °F /  18.3 °C 49.3 °F /  9.6 °C 30.18 in /  1021.9 hPa Calm     57 % 0.00 in /  0 mm
15:34 65.0 °F /  18.3 °C 49.9 °F /  9.9 °C 30.18 in /  1021.9 hPa Calm     58 % 0.00 in /  0 mm
15:39 65.0 °F /  18.3 °C 49.9 °F /  9.9 °C 30.17 in /  1021.6 hPa Calm     58 % 0.00 in /  0 mm
15:44 65.0 °F /  18.3 °C 49.9 °F /  9.9 °C 30.17 in /  1021.6 hPa Calm     58 % 0.00 in /  0 mm
15:49 65.1 °F /  18.4 °C 50.0 °F /  10 °C 30.17 in /  1021.6 hPa WNW 1.2 mph /  1.9 km/h   58 % 0.00 in /  0 mm
15:54 65.0 °F /  18.3 °C 49.9 °F /  9.9 °C 30.17 in /  1021.6 hPa WNW 1.2 mph /  1.9 km/h   58 % 0.00 in /  0 mm
15:59 64.8 °F /  18.2 °C 50.1 °F /  10.1 °C 30.17 in /  1021.6 hPa NW 1.2 mph /  1.9 km/h   59 % 0.00 in /  0 mm
16:04 64.7 °F /  18.2 °C 50.0 °F /  10 °C 30.16 in /  1021.2 hPa Calm     59 % 0.00 in /  0 mm
16:09 64.7 °F /  18.2 °C 50.0 °F /  10 °C 30.16 in /  1021.2 hPa NW 2.3 mph /  3.7 km/h 2.3 mph /  3.7 km/h 59 % 0.00 in /  0 mm
16:14 64.7 °F /  18.2 °C 50.0 °F /  10 °C 30.17 in /  1021.6 hPa Calm     59 % 0.00 in /  0 mm
16:19 64.4 °F /  18 °C 50.2 °F /  10.1 °C 30.16 in /  1021.2 hPa Calm     60 % 0.00 in /  0 mm
16:24 64.1 °F /  17.8 °C 49.9 °F /  9.9 °C 30.16 in /  1021.2 hPa Calm     60 % 0.00 in /  0 mm
16:29 63.8 °F /  17.7 °C 50.1 °F /  10.1 °C 30.16 in /  1021.2 hPa Calm     61 % 0.00 in /  0 mm
16:34 63.6 °F /  17.6 °C 50.3 °F /  10.2 °C 30.16 in /  1021.2 hPa Calm     62 % 0.00 in /  0 mm
16:39 63.4 °F /  17.4 °C 50.1 °F /  10.1 °C 30.15 in /  1020.9 hPa Calm     62 % 0.00 in /  0 mm
16:44 63.1 °F /  17.3 °C 50.7 °F /  10.4 °C 30.15 in /  1020.9 hPa Calm     64 % 0.00 in /  0 mm
16:49 62.4 °F /  16.9 °C 50.9 °F /  10.5 °C 30.15 in /  1020.9 hPa Calm     66 % 0.00 in /  0 mm
16:54 61.7 °F /  16.5 °C 50.6 °F /  10.3 °C 30.16 in /  1021.2 hPa Calm     67 % 0.00 in /  0 mm
16:59 61.2 °F /  16.2 °C 50.6 °F /  10.3 °C 30.16 in /  1021.2 hPa Calm     68 % 0.00 in /  0 mm
17:04 60.9 °F /  16.1 °C 50.3 °F /  10.2 °C 30.16 in /  1021.2 hPa Calm     68 % 0.00 in /  0 mm
17:09 60.5 °F /  15.8 °C 50.3 °F /  10.2 °C 30.16 in /  1021.2 hPa Calm     69 % 0.00 in /  0 mm
17:14 60.1 °F /  15.6 °C 50.7 °F /  10.4 °C 30.16 in /  1021.2 hPa Calm     71 % 0.00 in /  0 mm
17:19 59.5 °F /  15.3 °C 50.5 °F /  10.3 °C 30.16 in /  1021.2 hPa Calm     72 % 0.00 in /  0 mm
17:24 59.0 °F /  15 °C 50.0 °F /  10 °C 30.16 in /  1021.2 hPa Calm     72 % 0.00 in /  0 mm
17:29 58.4 °F /  14.7 °C 49.8 °F /  9.9 °C 30.17 in /  1021.6 hPa Calm     73 % 0.00 in /  0 mm
17:34 58.2 °F /  14.6 °C 50.0 °F /  10 °C 30.17 in /  1021.6 hPa Calm     74 % 0.00 in /  0 mm
17:39 57.9 °F /  14.4 °C 50.0 °F /  10 °C 30.17 in /  1021.6 hPa Calm     75 % 0.00 in /  0 mm
17:44 57.6 °F /  14.2 °C 49.7 °F /  9.8 °C 30.17 in /  1021.6 hPa Calm     75 % 0.00 in /  0 mm
17:49 57.6 °F /  14.2 °C 49.7 °F /  9.8 °C 30.18 in /  1021.9 hPa Calm     75 % 0.00 in /  0 mm
17:54 57.5 °F /  14.2 °C 49.6 °F /  9.8 °C 30.18 in /  1021.9 hPa Calm     75 % 0.00 in /  0 mm
17:59 57.4 °F /  14.1 °C 49.5 °F /  9.7 °C 30.18 in /  1021.9 hPa Calm     75 % 0.00 in /  0 mm
18:04 57.0 °F /  13.9 °C 49.5 °F /  9.7 °C 30.18 in /  1021.9 hPa Calm     76 % 0.00 in /  0 mm
18:09 56.5 °F /  13.6 °C 49.4 °F /  9.7 °C 30.18 in /  1021.9 hPa Calm     77 % 0.00 in /  0 mm
18:14 56.5 °F /  13.6 °C 49.4 °F /  9.7 °C 30.17 in /  1021.6 hPa Calm     77 % 0.00 in /  0 mm
18:19 56.6 °F /  13.7 °C 49.5 °F /  9.7 °C 30.18 in /  1021.9 hPa Calm     77 % 0.00 in /  0 mm
18:24 56.7 °F /  13.7 °C 49.6 °F /  9.8 °C 30.18 in /  1021.9 hPa Calm     77 % 0.00 in /  0 mm
18:29 56.2 °F /  13.4 °C 49.1 °F /  9.5 °C 30.18 in /  1021.9 hPa Calm     77 % 0.00 in /  0 mm
18:34 55.6 °F /  13.1 °C 48.8 °F /  9.3 °C 30.19 in /  1022.2 hPa Calm     78 % 0.00 in /  0 mm
18:39 55.1 °F /  12.8 °C 48.4 °F /  9.1 °C 30.19 in /  1022.2 hPa Calm     78 % 0.00 in /  0 mm
18:44 54.5 °F /  12.5 °C 48.5 °F /  9.2 °C 30.19 in /  1022.2 hPa Calm     80 % 0.00 in /  0 mm
18:49 53.9 °F /  12.2 °C 48.2 °F /  9 °C 30.19 in /  1022.2 hPa Calm     81 % 0.00 in /  0 mm
18:54 53.5 °F /  11.9 °C 47.8 °F /  8.8 °C 30.19 in /  1022.2 hPa Calm     81 % 0.00 in /  0 mm
18:59 53.1 °F /  11.7 °C 47.7 °F /  8.7 °C 30.19 in /  1022.2 hPa Calm     82 % 0.00 in /  0 mm
19:04 52.7 °F /  11.5 °C 47.7 °F /  8.7 °C 30.19 in /  1022.2 hPa Calm     83 % 0.00 in /  0 mm
19:09 52.3 °F /  11.3 °C 47.3 °F /  8.5 °C 30.19 in /  1022.2 hPa Calm     83 % 0.00 in /  0 mm
19:14 51.9 °F /  11.1 °C 47.2 °F /  8.4 °C 30.19 in /  1022.2 hPa Calm     84 % 0.00 in /  0 mm
19:19 51.6 °F /  10.9 °C 46.9 °F /  8.3 °C 30.19 in /  1022.2 hPa Calm     84 % 0.00 in /  0 mm
19:24 51.7 °F /  10.9 °C 47.3 °F /  8.5 °C 30.19 in /  1022.2 hPa Calm     85 % 0.00 in /  0 mm
19:29 51.5 °F /  10.8 °C 46.8 °F /  8.2 °C 30.19 in /  1022.2 hPa Calm     84 % 0.00 in /  0 mm
19:34 51.3 °F /  10.7 °C 47.3 °F /  8.5 °C 30.20 in /  1022.6 hPa Calm     86 % 0.00 in /  0 mm
19:39 51.1 °F /  10.6 °C 47.1 °F /  8.4 °C 30.20 in /  1022.6 hPa Calm     86 % 0.00 in /  0 mm
19:44 50.7 °F /  10.4 °C 46.4 °F /  8 °C 30.20 in /  1022.6 hPa Calm     85 % 0.00 in /  0 mm
19:49 50.3 °F /  10.2 °C 46.3 °F /  7.9 °C 30.20 in /  1022.6 hPa Calm     86 % 0.00 in /  0 mm
19:54 50.0 °F /  10 °C 46.0 °F /  7.8 °C 30.20 in /  1022.6 hPa Calm     86 % 0.00 in /  0 mm
19:59 49.7 °F /  9.8 °C 46.0 °F /  7.8 °C 30.20 in /  1022.6 hPa Calm     87 % 0.00 in /  0 mm
20:04 49.4 °F /  9.7 °C 45.7 °F /  7.6 °C 30.20 in /  1022.6 hPa Calm     87 % 0.00 in /  0 mm
20:09 49.1 °F /  9.5 °C 45.4 °F /  7.4 °C 30.20 in /  1022.6 hPa Calm     87 % 0.00 in /  0 mm
20:14 49.0 °F /  9.4 °C 45.3 °F /  7.4 °C 30.20 in /  1022.6 hPa Calm     87 % 0.00 in /  0 mm
20:19 49.0 °F /  9.4 °C 45.6 °F /  7.6 °C 30.20 in /  1022.6 hPa Calm     88 % 0.00 in /  0 mm
20:24 49.6 °F /  9.8 °C 46.5 °F /  8.1 °C 30.20 in /  1022.6 hPa Calm     89 % 0.00 in /  0 mm
20:29 49.9 °F /  9.9 °C 46.5 °F /  8.1 °C 30.20 in /  1022.6 hPa Calm     88 % 0.00 in /  0 mm
20:34 49.6 °F /  9.8 °C 45.9 °F /  7.7 °C 30.21 in /  1022.9 hPa Calm     87 % 0.00 in /  0 mm
20:39 49.3 °F /  9.6 °C 45.6 °F /  7.6 °C 30.21 in /  1022.9 hPa Calm     87 % 0.00 in /  0 mm
20:44 49.0 °F /  9.4 °C 45.6 °F /  7.6 °C 30.21 in /  1022.9 hPa Calm     88 % 0.00 in /  0 mm
20:49 49.0 °F /  9.4 °C 45.9 °F /  7.7 °C 30.21 in /  1022.9 hPa Calm     89 % 0.00 in /  0 mm
20:54 49.1 °F /  9.5 °C 46.0 °F /  7.8 °C 30.21 in /  1022.9 hPa Calm     89 % 0.00 in /  0 mm
20:59 49.7 °F /  9.8 °C 46.3 °F /  7.9 °C 30.21 in /  1022.9 hPa Calm     88 % 0.00 in /  0 mm
21:04 49.7 °F /  9.8 °C 46.0 °F /  7.8 °C 30.21 in /  1022.9 hPa NE 1.2 mph /  1.9 km/h   87 % 0.00 in /  0 mm
21:09 49.5 °F /  9.7 °C 46.1 °F /  7.8 °C 30.21 in /  1022.9 hPa Calm     88 % 0.00 in /  0 mm
21:14 49.3 °F /  9.6 °C 45.9 °F /  7.7 °C 30.21 in /  1022.9 hPa Calm     88 % 0.00 in /  0 mm
21:19 49.1 °F /  9.5 °C 45.7 °F /  7.6 °C 30.21 in /  1022.9 hPa Calm     88 % 0.00 in /  0 mm
21:24 49.1 °F /  9.5 °C 46.0 °F /  7.8 °C 30.21 in /  1022.9 hPa Calm     89 % 0.00 in /  0 mm
21:29 49.2 °F /  9.6 °C 46.1 °F /  7.8 °C 30.21 in /  1022.9 hPa Calm     89 % 0.00 in /  0 mm
21:34 49.2 °F /  9.6 °C 46.1 °F /  7.8 °C 30.21 in /  1022.9 hPa Calm     89 % 0.00 in /  0 mm
21:39 49.1 °F /  9.5 °C 46.0 °F /  7.8 °C 30.21 in /  1022.9 hPa Calm     89 % 0.00 in /  0 mm
21:44 48.7 °F /  9.3 °C 45.3 °F /  7.4 °C 30.21 in /  1022.9 hPa Calm     88 % 0.00 in /  0 mm
21:49 48.4 °F /  9.1 °C 45.0 °F /  7.2 °C 30.21 in /  1022.9 hPa Calm     88 % 0.00 in /  0 mm
21:55 48.3 °F /  9.1 °C 45.2 °F /  7.3 °C 30.21 in /  1022.9 hPa Calm     89 % 0.00 in /  0 mm
22:00 48.2 °F /  9 °C 45.4 °F /  7.4 °C 30.21 in /  1022.9 hPa Calm     90 % 0.00 in /  0 mm
22:05 48.1 °F /  8.9 °C 45.3 °F /  7.4 °C 30.21 in /  1022.9 hPa Calm     90 % 0.00 in /  0 mm
22:10 48.1 °F /  8.9 °C 45.3 °F /  7.4 °C 30.20 in /  1022.6 hPa Calm     90 % 0.00 in /  0 mm
22:15 48.0 °F /  8.9 °C 45.2 °F /  7.3 °C 30.20 in /  1022.6 hPa Calm     90 % 0.00 in /  0 mm
22:20 48.0 °F /  8.9 °C 45.2 °F /  7.3 °C 30.20 in /  1022.6 hPa Calm     90 % 0.00 in /  0 mm
22:25 47.9 °F /  8.8 °C 45.1 °F /  7.3 °C 30.20 in /  1022.6 hPa Calm     90 % 0.00 in /  0 mm
22:30 47.7 °F /  8.7 °C 44.9 °F /  7.2 °C 30.20 in /  1022.6 hPa Calm     90 % 0.00 in /  0 mm
22:35 47.3 °F /  8.5 °C 44.2 °F /  6.8 °C 30.20 in /  1022.6 hPa Calm     89 % 0.00 in /  0 mm
22:40 47.1 °F /  8.4 °C 44.3 °F /  6.8 °C 30.20 in /  1022.6 hPa Calm     90 % 0.00 in /  0 mm
22:45 47.1 °F /  8.4 °C 44.6 °F /  7 °C 30.20 in /  1022.6 hPa Calm     91 % 0.00 in /  0 mm
22:50 47.0 °F /  8.3 °C 44.5 °F /  6.9 °C 30.20 in /  1022.6 hPa Calm     91 % 0.00 in /  0 mm
22:55 46.8 °F /  8.2 °C 44.3 °F /  6.8 °C 30.20 in /  1022.6 hPa Calm     91 % 0.00 in /  0 mm
23:00 46.7 °F /  8.2 °C 44.2 °F /  6.8 °C 30.20 in /  1022.6 hPa Calm     91 % 0.00 in /  0 mm
23:05 46.8 °F /  8.2 °C 44.6 °F /  7 °C 30.20 in /  1022.6 hPa Calm     92 % 0.00 in /  0 mm
23:10 46.8 °F /  8.2 °C 44.6 °F /  7 °C 30.20 in /  1022.6 hPa Calm     92 % 0.00 in /  0 mm
23:15 46.8 °F /  8.2 °C 44.6 °F /  7 °C 30.20 in /  1022.6 hPa Calm     92 % 0.00 in /  0 mm
23:20 46.9 °F /  8.3 °C 44.7 °F /  7.1 °C 30.20 in /  1022.6 hPa Calm     92 % 0.00 in /  0 mm
23:25 46.8 °F /  8.2 °C 44.6 °F /  7 °C 30.20 in /  1022.6 hPa Calm     92 % 0.00 in /  0 mm
23:30 46.7 °F /  8.2 °C 44.5 °F /  6.9 °C 30.20 in /  1022.6 hPa Calm     92 % 0.00 in /  0 mm
23:35 46.5 °F /  8.1 °C 44.0 °F /  6.7 °C 30.20 in /  1022.6 hPa Calm     91 % 0.00 in /  0 mm
23:40 46.3 °F /  7.9 °C 44.1 °F /  6.7 °C 30.20 in /  1022.6 hPa Calm     92 % 0.00 in /  0 mm
23:45 46.2 °F /  7.9 °C 44.0 °F /  6.7 °C 30.20 in /  1022.6 hPa Calm     92 % 0.00 in /  0 mm
23:50 46.0 °F /  7.8 °C 43.8 °F /  6.6 °C 30.20 in /  1022.6 hPa Calm     92 % 0.00 in /  0 mm
23:55 45.9 °F /  7.7 °C 43.7 °F /  6.5 °C 30.20 in /  1022.6 hPa Calm     92 % 0.00 in /  0 mm
Park Place, Exeter, Tulare County, California, USA
Compliments of Weather Underground - 2.75 mb